createdAt,value
2023-05-06T00:01:15.003Z,9.50
2023-05-06T00:04:16.614Z,9.18
2023-05-06T00:07:18.283Z,8.45
2023-05-06T00:10:21.236Z,11.70
2023-05-06T00:13:22.816Z,9.67
2023-05-06T00:16:24.544Z,10.43
2023-05-06T00:19:26.391Z,8.35
2023-05-06T00:22:28.403Z,11.80
2023-05-06T00:25:30.042Z,9.02
2023-05-06T00:28:31.810Z,9.63
2023-05-06T00:31:33.508Z,9.52
2023-05-06T00:34:35.141Z,9.48
2023-05-06T00:37:36.731Z,11.02
2023-05-06T00:40:38.505Z,9.63
2023-05-06T00:43:40.074Z,9.40
2023-05-06T00:46:43.465Z,9.75
2023-05-06T00:49:47.012Z,9.65
2023-05-06T00:52:49.343Z,10.15
2023-05-06T00:55:51.330Z,12.73
2023-05-06T00:58:54.518Z,10.03
2023-05-06T01:01:56.199Z,9.75
2023-05-06T01:04:58.665Z,12.82
2023-05-06T01:08:12.285Z,10.27
2023-05-06T01:11:24.247Z,11.60
2023-05-06T01:14:33.161Z,8.60
2023-05-06T01:17:38.657Z,8.32
2023-05-06T01:20:42.359Z,10.23
2023-05-06T01:23:58.049Z,9.52
2023-05-06T01:27:00.054Z,10.65
2023-05-06T01:30:02.529Z,10.03
2023-05-06T01:33:32.834Z,11.30
2023-05-06T01:36:53.713Z,11.15
2023-05-06T01:40:00.052Z,9.52
2023-05-06T01:43:05.832Z,10.07
2023-05-06T01:46:13.556Z,9.90
2023-05-06T01:49:16.979Z,9.85
2023-05-06T01:52:18.658Z,9.55
2023-05-06T01:55:20.399Z,9.05
2023-05-06T01:58:21.960Z,10.50
2023-05-06T02:01:23.721Z,9.70
2023-05-06T02:04:25.651Z,10.35
2023-05-06T02:07:27.262Z,10.40
2023-05-06T02:10:28.915Z,10.32
2023-05-06T02:13:30.549Z,10.88
2023-05-06T02:16:32.261Z,11.20
2023-05-06T02:19:34.483Z,10.02
2023-05-06T02:22:36.128Z,9.65
2023-05-06T02:25:37.709Z,10.38
2023-05-06T02:28:39.472Z,9.98
2023-05-06T02:31:41.196Z,10.87
2023-05-06T02:34:42.856Z,9.75
2023-05-06T02:37:44.513Z,11.35
2023-05-06T02:40:46.127Z,10.13
2023-05-06T02:43:47.751Z,11.65
2023-05-06T02:46:49.382Z,13.20
2023-05-06T02:49:51.005Z,12.23
2023-05-06T02:52:52.615Z,12.25
2023-05-06T02:55:54.617Z,11.55
2023-05-06T02:58:56.272Z,10.40
2023-05-06T03:01:57.922Z,12.80
2023-05-06T03:04:59.688Z,11.60
2023-05-06T03:08:02.444Z,11.25
2023-05-06T03:11:04.697Z,11.90
2023-05-06T03:14:07.638Z,11.80
2023-05-06T03:17:09.279Z,9.87
2023-05-06T03:20:11.071Z,9.75
2023-05-06T03:23:12.676Z,13.38
2023-05-06T03:26:14.301Z,11.32
2023-05-06T03:29:16.019Z,10.10
2023-05-06T03:32:18.140Z,10.03
2023-05-06T03:35:20.067Z,9.82
2023-05-06T03:38:21.796Z,9.75
2023-05-06T03:41:24.634Z,9.63
2023-05-06T03:44:26.215Z,9.55
2023-05-06T03:47:27.947Z,12.03
2023-05-06T03:50:29.541Z,10.65
2023-05-06T03:53:31.144Z,9.05
2023-05-06T03:56:32.800Z,10.68
2023-05-06T03:59:34.485Z,11.48
2023-05-06T04:02:37.139Z,14.10
2023-05-06T04:05:38.923Z,12.52
2023-05-06T04:08:40.680Z,25.48
2023-05-06T04:11:42.204Z,16.38
2023-05-06T04:14:43.779Z,13.93
2023-05-06T04:17:45.378Z,15.70
2023-05-06T04:20:48.162Z,13.63
2023-05-06T04:23:49.740Z,11.98
2023-05-06T04:26:51.327Z,12.40
2023-05-06T04:29:52.962Z,12.50
2023-05-06T04:32:54.690Z,12.87
2023-05-06T04:35:56.309Z,11.55
2023-05-06T04:38:58.338Z,10.85
2023-05-06T04:41:59.914Z,11.38
2023-05-06T04:45:02.123Z,10.48
2023-05-06T04:48:03.948Z,10.30
2023-05-06T04:51:05.680Z,14.93
2023-05-06T04:54:07.325Z,12.32
2023-05-06T04:57:08.868Z,13.68
2023-05-06T05:00:11.005Z,16.38
2023-05-06T05:03:12.991Z,11.83
2023-05-06T05:06:14.669Z,13.00
2023-05-06T05:09:16.292Z,11.40
2023-05-06T05:12:17.906Z,10.30
2023-05-06T05:15:21.172Z,13.15
2023-05-06T05:18:23.050Z,11.07
2023-05-06T05:21:24.642Z,10.93
2023-05-06T05:24:26.344Z,10.13
2023-05-06T05:27:28.129Z,10.75
2023-05-06T05:30:29.739Z,11.05
2023-05-06T05:33:31.814Z,9.90
2023-05-06T05:36:33.465Z,11.23
2023-05-06T05:39:35.040Z,13.35
2023-05-06T05:42:36.664Z,10.88
2023-05-06T05:45:38.276Z,11.93
2023-05-06T05:48:39.858Z,11.30
2023-05-06T05:51:41.523Z,10.32
2023-05-06T05:54:43.352Z,11.38
2023-05-06T05:57:44.950Z,10.73
2023-05-06T06:00:46.538Z,10.77
2023-05-06T06:03:48.210Z,10.57
2023-05-06T06:06:49.996Z,10.15
2023-05-06T06:09:51.755Z,10.05
2023-05-06T06:12:53.467Z,11.73
2023-05-06T06:15:56.470Z,9.55
2023-05-06T06:18:58.161Z,9.60
2023-05-06T06:21:59.830Z,10.20
2023-05-06T06:25:01.483Z,8.88
2023-05-06T06:28:03.144Z,9.93
2023-05-06T06:31:04.862Z,10.20
2023-05-06T06:34:06.616Z,10.40
2023-05-06T06:37:10.739Z,9.05
2023-05-06T06:40:13.263Z,11.93
2023-05-06T06:43:14.913Z,9.88
2023-05-06T06:46:17.045Z,9.02
2023-05-06T06:49:18.720Z,9.30
2023-05-06T06:52:20.339Z,9.45
2023-05-06T06:55:22.012Z,9.05
2023-05-06T06:58:23.891Z,10.27
2023-05-06T07:01:25.500Z,9.23
2023-05-06T07:04:27.256Z,11.50
2023-05-06T07:07:29.027Z,9.07
2023-05-06T07:10:30.694Z,8.90
2023-05-06T07:13:32.313Z,9.00
2023-05-06T07:16:33.949Z,11.13
2023-05-06T07:19:35.889Z,9.27
2023-05-06T07:22:37.544Z,8.52
2023-05-06T07:25:39.255Z,9.32
2023-05-06T07:28:40.886Z,8.27
2023-05-06T07:31:42.576Z,8.52
2023-05-06T07:34:44.278Z,8.10
2023-05-06T07:37:46.481Z,7.68
2023-05-06T07:40:48.601Z,8.98
2023-05-06T07:43:50.192Z,10.30
2023-05-06T07:46:51.948Z,8.20
2023-05-06T07:49:54.107Z,9.73
2023-05-06T07:52:55.840Z,8.38
2023-05-06T07:56:02.091Z,7.70
2023-05-06T07:59:03.913Z,8.52
2023-05-06T08:02:05.578Z,8.45
2023-05-06T08:05:08.966Z,9.07
2023-05-06T08:08:10.903Z,8.15
2023-05-06T08:11:12.520Z,12.30
2023-05-06T08:14:14.188Z,9.30
2023-05-06T08:17:15.883Z,9.27
2023-05-06T08:20:17.615Z,10.57
2023-05-06T08:23:19.222Z,9.00
2023-05-06T08:26:21.443Z,10.68
2023-05-06T08:29:23.127Z,10.20
2023-05-06T08:32:24.890Z,8.20
2023-05-06T08:35:26.896Z,8.87
2023-05-06T08:38:28.475Z,8.07
2023-05-06T08:41:31.377Z,8.27
2023-05-06T08:44:33.740Z,10.48
2023-05-06T08:47:35.673Z,9.75
2023-05-06T08:50:45.794Z,8.47
2023-05-06T08:53:48.867Z,10.18
2023-05-06T08:56:53.411Z,9.90
2023-05-06T08:59:55.337Z,10.18
2023-05-06T09:02:57.136Z,9.43
2023-05-06T09:05:58.915Z,8.80
2023-05-06T09:09:00.684Z,9.20
2023-05-06T09:12:02.836Z,11.45
2023-05-06T09:15:04.939Z,8.90
2023-05-06T09:18:06.728Z,11.15
2023-05-06T09:21:08.379Z,9.87
2023-05-06T09:24:11.567Z,10.23
2023-05-06T09:27:15.191Z,9.25
2023-05-06T09:30:18.985Z,10.70
2023-05-06T09:33:21.739Z,10.18
2023-05-06T09:36:24.449Z,10.00
2023-05-06T09:39:27.248Z,11.52
2023-05-06T09:42:30.003Z,8.63
2023-05-06T09:45:32.830Z,11.30
2023-05-06T09:48:35.962Z,8.93
2023-05-06T09:51:38.725Z,9.73
2023-05-06T09:54:41.414Z,8.90
2023-05-06T09:57:44.281Z,8.02
2023-05-06T10:00:46.664Z,6.25
2023-05-06T10:03:49.182Z,7.25
2023-05-06T10:06:52.886Z,6.80
2023-05-06T10:09:58.467Z,6.88
2023-05-06T10:13:03.640Z,7.50
2023-05-06T10:16:06.737Z,6.60
2023-05-06T10:19:09.397Z,6.30
2023-05-06T10:22:30.921Z,6.47
2023-05-06T10:25:38.730Z,6.60
2023-05-06T10:28:42.492Z,8.38
2023-05-06T10:31:54.631Z,8.32
2023-05-06T10:34:58.842Z,8.32
2023-05-06T10:38:02.788Z,10.47
2023-05-06T10:41:04.888Z,8.07
2023-05-06T10:44:07.162Z,8.70
2023-05-06T10:47:09.463Z,7.22
2023-05-06T10:50:27.621Z,7.72
2023-05-06T10:53:55.688Z,7.73
2023-05-06T10:56:58.223Z,8.52
2023-05-06T11:00:00.029Z,9.63
2023-05-06T11:03:05.174Z,8.27
2023-05-06T11:06:07.419Z,7.93
2023-05-06T11:09:22.969Z,7.77
2023-05-06T11:12:43.424Z,7.30
2023-05-06T11:15:46.401Z,8.35
2023-05-06T11:18:48.260Z,7.25
2023-05-06T11:21:50.953Z,6.65
2023-05-06T11:24:52.630Z,6.73
2023-05-06T11:27:56.114Z,7.95
2023-05-06T11:30:58.104Z,7.72
2023-05-06T11:34:01.661Z,7.65
2023-05-06T11:37:07.936Z,6.30
2023-05-06T11:40:16.125Z,7.03
2023-05-06T11:43:18.879Z,8.48
2023-05-06T11:46:23.766Z,7.82
2023-05-06T11:49:26.855Z,8.38
2023-05-06T11:52:30.420Z,6.97
2023-05-06T11:55:32.011Z,6.90
2023-05-06T11:58:33.639Z,7.00
2023-05-06T12:01:35.513Z,7.40
2023-05-06T12:04:45.034Z,6.45
2023-05-06T12:07:46.718Z,7.47
2023-05-06T12:10:48.761Z,6.67
2023-05-06T12:13:50.459Z,8.35
2023-05-06T12:16:54.099Z,6.90
2023-05-06T12:19:58.825Z,6.47
2023-05-06T12:23:11.376Z,6.70
2023-05-06T12:26:13.020Z,7.37
2023-05-06T12:29:17.344Z,7.32
2023-05-06T12:32:19.086Z,7.32
2023-05-06T12:35:31.689Z,7.20
2023-05-06T12:38:33.319Z,7.53
2023-05-06T12:41:45.550Z,7.43
2023-05-06T12:44:47.178Z,7.15
2023-05-06T12:47:56.673Z,7.93
2023-05-06T12:50:58.516Z,6.50
2023-05-06T12:54:00.130Z,6.38
2023-05-06T12:57:02.238Z,7.00
2023-05-06T13:00:06.257Z,6.70
2023-05-06T13:03:08.026Z,7.57
2023-05-06T13:06:09.752Z,7.20
2023-05-06T13:09:11.941Z,8.88
2023-05-06T13:12:14.708Z,6.60
2023-05-06T13:15:16.439Z,8.80
2023-05-06T13:18:18.059Z,9.15
2023-05-06T13:21:19.681Z,8.65
2023-05-06T13:24:21.583Z,8.50
2023-05-06T13:27:23.174Z,8.87
2023-05-06T13:30:24.809Z,10.05
2023-05-06T13:33:26.379Z,8.98
2023-05-06T13:36:28.440Z,9.63
2023-05-06T13:39:30.659Z,8.73
2023-05-06T13:42:33.342Z,8.27
2023-05-06T13:45:34.901Z,7.93
2023-05-06T13:48:36.558Z,7.78
2023-05-06T13:51:38.167Z,8.07
2023-05-06T13:54:39.895Z,9.10
2023-05-06T13:57:42.727Z,8.83
2023-05-06T14:00:44.495Z,9.38
2023-05-06T14:03:46.384Z,8.48
2023-05-06T14:06:48.055Z,9.32
2023-05-06T14:09:49.705Z,9.70
2023-05-06T14:12:51.738Z,10.10
2023-05-06T14:15:58.061Z,9.95
2023-05-06T14:18:59.668Z,9.77
2023-05-06T14:22:01.380Z,10.45
2023-05-06T14:25:03.278Z,13.43
2023-05-06T14:28:05.024Z,12.67
2023-05-06T14:31:06.677Z,11.95
2023-05-06T14:34:08.629Z,11.65
2023-05-06T14:37:10.374Z,11.38
2023-05-06T14:40:12.325Z,11.75
2023-05-06T14:43:14.045Z,11.13
2023-05-06T14:46:16.345Z,12.98
2023-05-06T14:49:18.136Z,13.38
2023-05-06T14:52:20.202Z,11.95
2023-05-06T14:55:21.993Z,13.35
2023-05-06T14:58:23.875Z,12.43
2023-05-06T15:01:25.723Z,12.77
2023-05-06T15:04:27.995Z,12.98
2023-05-06T15:07:29.672Z,14.00
2023-05-06T15:10:31.416Z,11.85
2023-05-06T15:13:32.960Z,12.47
2023-05-06T15:16:34.654Z,12.07
2023-05-06T15:19:36.370Z,11.27
2023-05-06T15:22:39.536Z,12.27
2023-05-06T15:25:41.674Z,11.52
2023-05-06T15:28:43.476Z,13.10
2023-05-06T15:31:45.250Z,12.88
2023-05-06T15:34:46.888Z,11.57
2023-05-06T15:37:48.800Z,11.80
2023-05-06T15:40:52.132Z,10.77
2023-05-06T15:43:56.090Z,11.13
2023-05-06T15:46:57.742Z,10.93
2023-05-06T15:50:02.090Z,11.85
2023-05-06T15:53:03.827Z,10.55
2023-05-06T15:56:18.159Z,11.32
2023-05-06T15:59:20.580Z,12.50
2023-05-06T16:02:26.815Z,14.73
2023-05-06T16:05:29.091Z,12.15
2023-05-06T16:08:30.768Z,13.07
2023-05-06T16:11:32.330Z,10.00
2023-05-06T16:14:33.904Z,11.07
2023-05-06T16:17:37.676Z,11.07
2023-05-06T16:20:39.912Z,11.57
2023-05-06T16:23:41.536Z,12.23
2023-05-06T16:26:43.191Z,12.02
2023-05-06T16:29:45.004Z,11.83
2023-05-06T16:32:46.752Z,10.75
2023-05-06T16:35:48.409Z,12.00
2023-05-06T16:38:50.093Z,14.40
2023-05-06T16:41:51.949Z,12.73
2023-05-06T16:44:53.557Z,13.87
2023-05-06T16:47:55.259Z,12.50
2023-05-06T16:50:58.104Z,11.73
2023-05-06T16:53:59.860Z,13.90
2023-05-06T16:57:01.510Z,11.80
2023-05-06T17:00:07.851Z,13.30
2023-05-06T17:03:09.878Z,12.20
2023-05-06T17:06:11.880Z,10.60
2023-05-06T17:09:13.706Z,10.48
2023-05-06T17:12:15.654Z,10.70
2023-05-06T17:15:17.426Z,11.40
2023-05-06T17:18:19.020Z,11.18
2023-05-06T17:21:21.390Z,10.55
2023-05-06T17:24:23.140Z,10.65
2023-05-06T17:27:24.893Z,11.85
2023-05-06T17:30:26.589Z,11.83
2023-05-06T17:33:28.201Z,10.90
2023-05-06T17:36:29.788Z,12.00
2023-05-06T17:39:34.742Z,12.15
2023-05-06T17:42:36.612Z,11.15
2023-05-06T17:45:40.417Z,13.63
2023-05-06T17:48:41.981Z,13.82
2023-05-06T17:51:45.568Z,11.80
2023-05-06T17:54:57.089Z,12.18
2023-05-06T17:58:07.686Z,12.05
2023-05-06T18:01:09.379Z,10.40
2023-05-06T18:04:12.024Z,10.00
2023-05-06T18:07:15.437Z,9.85
2023-05-06T18:10:19.157Z,9.85
2023-05-06T18:13:20.937Z,11.02
2023-05-06T18:16:22.718Z,9.67
2023-05-06T18:19:24.691Z,9.90
2023-05-06T18:22:26.517Z,9.68
2023-05-06T18:25:28.136Z,9.98
2023-05-06T18:28:29.738Z,10.60
2023-05-06T18:31:31.412Z,10.00
2023-05-06T18:34:33.141Z,11.02
2023-05-06T18:37:34.771Z,12.20
2023-05-06T18:40:36.665Z,14.98
2023-05-06T18:43:38.286Z,12.48
2023-05-06T18:46:40.071Z,13.27
2023-05-06T18:49:41.752Z,12.00
2023-05-06T18:52:43.411Z,12.00
2023-05-06T18:55:44.959Z,10.88
2023-05-06T18:58:46.532Z,11.00
2023-05-06T19:01:48.343Z,11.50
2023-05-06T19:04:49.946Z,10.10
2023-05-06T19:07:51.599Z,10.80
2023-05-06T19:10:53.174Z,9.90
2023-05-06T19:13:56.862Z,9.57
2023-05-06T19:16:58.501Z,11.07
2023-05-06T19:20:00.573Z,14.60
2023-05-06T19:23:04.440Z,13.00
2023-05-06T19:26:06.778Z,13.32
2023-05-06T19:29:08.645Z,15.18
2023-05-06T19:32:10.692Z,12.63
2023-05-06T19:35:12.567Z,14.95
2023-05-06T19:38:14.411Z,15.02
2023-05-06T19:41:16.037Z,13.85
2023-05-06T19:44:17.643Z,13.73
2023-05-06T19:47:19.323Z,14.07
2023-05-06T19:50:21.196Z,14.40
2023-05-06T19:53:24.040Z,12.98
2023-05-06T19:56:25.708Z,11.70
2023-05-06T19:59:27.545Z,10.38
2023-05-06T20:02:29.148Z,10.40
2023-05-06T20:05:32.005Z,10.98
2023-05-06T20:08:33.691Z,10.40
2023-05-06T20:11:35.386Z,9.52
2023-05-06T20:14:38.580Z,10.30
2023-05-06T20:17:40.340Z,10.33
2023-05-06T20:20:43.295Z,10.25
2023-05-06T20:23:44.909Z,10.00
2023-05-06T20:26:46.589Z,9.85
2023-05-06T20:29:49.893Z,11.32
2023-05-06T20:32:52.233Z,9.20
2023-05-06T20:35:53.955Z,10.05
2023-05-06T20:38:55.525Z,8.75
2023-05-06T20:41:57.098Z,9.77
2023-05-06T20:44:59.187Z,8.85
2023-05-06T20:48:00.812Z,9.23
2023-05-06T20:51:02.543Z,8.93
2023-05-06T20:54:04.680Z,8.70
2023-05-06T20:57:06.354Z,7.53
2023-05-06T21:00:08.616Z,8.10
2023-05-06T21:03:10.431Z,8.60
2023-05-06T21:06:17.224Z,9.98
2023-05-06T21:09:18.958Z,8.38
2023-05-06T21:12:20.718Z,9.55
2023-05-06T21:15:22.425Z,8.68
2023-05-06T21:18:24.417Z,10.63
2023-05-06T21:21:26.278Z,9.43
2023-05-06T21:24:27.891Z,9.00
2023-05-06T21:27:29.480Z,8.50
2023-05-06T21:30:31.476Z,8.80
2023-05-06T21:33:33.053Z,9.70
2023-05-06T21:36:37.960Z,9.18
2023-05-06T21:39:39.582Z,11.07
2023-05-06T21:42:41.169Z,8.32
2023-05-06T21:45:42.736Z,8.45
2023-05-06T21:48:44.333Z,8.57
2023-05-06T21:51:46.018Z,8.13
2023-05-06T21:54:47.861Z,9.20
2023-05-06T21:57:49.855Z,8.90
2023-05-06T22:00:52.425Z,9.20
2023-05-06T22:03:54.286Z,8.30
2023-05-06T22:06:56.971Z,8.80
2023-05-06T22:09:58.646Z,9.00
2023-05-06T22:13:00.715Z,7.97
2023-05-06T22:16:02.757Z,7.97
2023-05-06T22:19:05.387Z,8.20
2023-05-06T22:22:08.225Z,6.90
2023-05-06T22:25:10.642Z,6.93
2023-05-06T22:28:12.451Z,6.50
2023-05-06T22:31:14.759Z,6.82
2023-05-06T22:34:16.347Z,7.63
2023-05-06T22:37:17.977Z,7.07
2023-05-06T22:40:19.703Z,7.00
2023-05-06T22:43:21.291Z,6.93
2023-05-06T22:46:23.210Z,6.60
2023-05-06T22:49:28.731Z,6.73
2023-05-06T22:52:30.436Z,6.57
2023-05-06T22:55:32.066Z,6.80
2023-05-06T22:58:33.849Z,6.30
2023-05-06T23:01:35.508Z,6.97
2023-05-06T23:04:37.317Z,6.30
2023-05-06T23:07:39.227Z,6.38
2023-05-06T23:10:42.226Z,5.88
2023-05-06T23:13:43.836Z,6.82
2023-05-06T23:16:45.484Z,7.18
2023-05-06T23:19:47.136Z,6.40
2023-05-06T23:22:48.867Z,6.97
2023-05-06T23:25:50.798Z,6.43
2023-05-06T23:28:52.422Z,6.47
2023-05-06T23:31:54.061Z,6.70
2023-05-06T23:34:55.743Z,6.03
2023-05-06T23:37:57.338Z,7.03
2023-05-06T23:40:59.030Z,7.95
2023-05-06T23:44:00.700Z,8.23
2023-05-06T23:47:02.345Z,6.13
2023-05-06T23:50:04.177Z,6.57
2023-05-06T23:53:05.903Z,6.88
2023-05-06T23:56:07.795Z,7.80
2023-05-06T23:59:09.521Z,6.00
